Biloxi, MS

10:04 AM CDT on June 26, 2017 (GMT -0500)
Forest Cove | | Change Station
Active Advisory: Flood Warning

Elev 46 ft 30.44 °N, 88.91 °W | Updated 7 minutes ago

Clear
Clear
83.1 °F
Feels Like 86 °F
N
1.7
Wind Variable Wind from ESE

Today
High -- | Low -- °F
--% Chance of Precip.
Yesterday
High -- | Low -- °F
Precip. -- in
Pressure 30.13 in
Visibility 10.0 miles
Clouds Clear
Heat Index 86 °F
Dew Point 68 °F
Humidity 60%
Rainfall 0.00 in
Snow Depth Not available.
5:55 AM 8:01 PM
Waxing Crescent, 9% visible
METAR KBIX 261458Z AUTO 07008KT 10SM CLR 27/18 A3012 RMK AO2 SLP202 T02710178 58000
Pressure 30.13 in
Visibility 10.0 miles
Clouds Clear
Heat Index 86 °F
Dew Point 68 °F
Humidity 60%
Rainfall 0.00 in
Snow Depth Not available.
5:55 AM 8:01 PM
Waxing Crescent, 9% visible
METAR KBIX 261458Z AUTO 07008KT 10SM CLR 27/18 A3012 RMK AO2 SLP202 T02710178 58000

Get Your Daily Forecast Email!

Thanks for signing up!

Be on the lookout for a verification email in your inbox.

You'll start receiving severe weather alerts in your inbox..

×

10-Day Weather Forecast

Almanac

Astronomy

Jun. 26, 2017 Rise Set
Actual Time
Civil Twilight
Nautical Twilight
Astronomical Twilight
Moon
Length of Visible Light
Length of Day
Tomorrow will be .
, % of the Moon is Illuminated

Today's Extremes

State Highs State Lows

Community

WunderPhotos

Category 6

Welcome to Category 6. This is the collective home for Weather Underground's featured writeups by Dr. Jeff Masters (right), Bob Henson (left), Chris Burt, and other regular contributors.

Nearby

Air Quality

  Air Quality AQ Index Pollutant
Not available.

Snow Depth

Station Depth Elevation

Earthquake Activity

City Distance Mag. Time & Date
Minimum magnitude displayed is 2.5.

Coastal Water Temperatures

Place Temperature

Stations

Nearby Weather Stations

Station Location Temp. Windchill Dew Point Humidity Wind Precip. Elev Updated Type
                   

Watches & Warnings

Flood Warning
Issued: 8:02 PM CDT Jun. 25, 2017 – National Weather Service

... Flood Warning extended until late Monday night... the Flood Warning
continues for
the Wolf River above Gulfport.
* Until late Monday night.
* At 7:45 PM Sunday the stage was 9.2 feet.
* Minor flooding is occurring and minor flooding is forecast.
* Flood stage is 8.0 feet.
* Forecast... the river will continue to fall to below flood stage by
tomorrow evening.
* Impact... at 9.0 feet... Bells Ferry Road will be impassable with deep
water on the east bridge approach.
* Impact... at 8.0 feet... Bells Ferry Road will begin to flood. There
will be water over the access Road just upstream of the bridge and
the Road will become impassable very quickly.


Lat... Lon 3042 8919 3041 8922 3037 8922 3039 8917